Flugplatz Nabern/Teck (EDTN)

Hier findest Du alle Informationen zum Flugplatz Nabern/Teck (EDTN).

Informationen für Piloten zum Flugplatz Nabern/Teck

Hier findest Du alle relevanten Informationen, die Du als Pilot benötigst, um Nabern/Teck anzufliegen.

Flugplatz: Nabern/Teck ICAO-Code: EDTN
Frequenz Turm: 118,325 Mhz GAFOR Gebiet: 53
Frequenz Ground: 118,325 Mhz Mogas: nein
Platzrunde: NE 2000 ft Landegebühr: -
Platzhöhe: - Sunrise: 03:18 Uhr UTC
Pisten: 14/32 - 570 m x 30 m, GRAS Sunset: 19:30 Uhr UTC

Mitglieder, die in Nabern/Teck fliegen

Flugwetter am Flugplatz Nabern/Teck

Die METAR Information stammen aus EDDS (20.60 km entfernt).

METAR Code:
2022/06/19 18:50
EDDS 191850Z AUTO 33004KT 280V040 CAVOK 31/14 Q1009 NOSIG

Temperatur: 13,8 °C Niederschlag: - Wind: 3,0 kt
Temperatur (min.): 13,0 °C Luftdruck: 1015 hPa Windrichtung: 260 °
Temperatur (max.): 14,7 °C Luftfeuchtigkeit: 93 % Bewölkung: -

Flugschulen am Flugplatz Nabern/Teck

Am Flugplatz Nabern/Teck gibt es eine Flugschule.

Benachbarte Flugplätze und Flugschulen

Es gibt 29 weitere Flugplätze in einem Umkreis von 50 km um den Flugplatz Nabern/Teck.

Jetzt anmelden

Passwort vergessen

Umfrage Archiv

Sendet Ihr ADS-B und/oder FLARM?

Ja
83.2 %
Nein
16.8 %
Stimmen: 173 | Diskussion
Anzeige: Roland Aircraft
Statistik Alle Mitglieder

Aktuell sind 55 Besucher online, davon 1 Mitglied und 54 Gäste.


Mitglieder online:
HansOtto 

Anzeige: ULPower Aero Engines Anzeige: Pocket FMS